Time;durP1;ratioP1;P1;durP2;ratioP2;P2;SDS_P1;SDS_P2;PMS_P1;PMS_P2;Temp;Humidity;BMP_temperature;BMP_pressure;BME280_temperature;BME280_humidity;BME280_pressure;Samples;Min_cycle;Max_cycle;Signal;HPM_P1;HPM_P2
2022/05/07 00:01:34;;;;;;;1.55;0.40;;;10.80;99.90;;;;;;5074038;28;20391;-73
2022/05/07 00:04:02;;;;;;;2.88;0.73;;;10.90;99.90;;;;;;5071520;28;20016;-73
2022/05/07 00:06:30;;;;;;;0.88;0.60;;;10.90;99.90;;;;;;5073757;28;20108;-73
2022/05/07 00:08:58;;;;;;;0.40;0.40;;;10.90;99.90;;;;;;5073680;28;20100;-73
2022/05/07 00:11:25;;;;;;;0.43;0.40;;;11.00;99.90;;;;;;5073761;28;20024;-73
2022/05/07 00:13:53;;;;;;;0.98;0.50;;;11.10;99.90;;;;;;5061871;28;20032;-73
2022/05/07 00:19:07;;;;;;;0.68;0.50;;;11.20;99.90;;;;;;5069616;28;20078;-73
2022/05/07 00:21:34;;;;;;;1.20;0.63;;;11.30;99.90;;;;;;5072280;28;20024;-73
2022/05/07 00:24:02;;;;;;;0.50;0.50;;;11.50;99.90;;;;;;5067586;28;20091;-73
2022/05/07 00:26:31;;;;;;;1.20;0.52;;;11.60;99.90;;;;;;5072305;28;20075;-74
2022/05/07 00:28:58;;;;;;;2.00;0.60;;;11.70;99.90;;;;;;5072299;28;20024;-73
2022/05/07 00:31:26;;;;;;;0.93;0.50;;;11.80;99.90;;;;;;5072189;28;20051;-73
2022/05/07 00:33:54;;;;;;;1.02;0.50;;;11.80;99.90;;;;;;5065797;28;20461;-73
2022/05/07 00:36:21;;;;;;;0.80;0.40;;;11.80;99.90;;;;;;5062428;28;20100;-73
2022/05/07 00:38:49;;;;;;;2.22;0.40;;;11.90;99.90;;;;;;5056947;28;20393;-73
2022/05/07 00:41:17;;;;;;;0.75;0.40;;;12.00;99.90;;;;;;5069090;28;20530;-70
2022/05/07 00:43:45;;;;;;;0.82;0.70;;;12.00;99.90;;;;;;5060648;28;20063;-72
2022/05/07 00:46:16;;;;;;;1.40;0.45;;;12.10;99.90;;;;;;5063994;28;20060;-71
2022/05/07 00:48:44;;;;;;;0.90;0.50;;;12.10;99.90;;;;;;5072068;28;20025;-70
2022/05/07 00:54:08;;;;;;;;;;;12.20;99.90;;;;;;5058760;28;20435;-71
2022/05/07 00:56:37;;;;;;;1.50;0.60;;;12.10;99.90;;;;;;5071602;28;19908;-71
2022/05/07 00:59:06;;;;;;;0.82;0.40;;;12.10;99.90;;;;;;5071518;28;20516;-71
2022/05/07 01:01:34;;;;;;;2.10;0.40;;;12.10;99.90;;;;;;5069277;28;20480;-70
2022/05/07 01:04:02;;;;;;;1.10;0.50;;;12.10;99.90;;;;;;5071715;28;20017;-70
2022/05/07 01:06:30;;;;;;;0.52;0.40;;;12.10;99.90;;;;;;5071446;28;20024;-71
2022/05/07 01:08:58;;;;;;;0.65;0.35;;;12.10;99.90;;;;;;5071468;28;20099;-71
2022/05/07 01:11:27;;;;;;;0.40;0.40;;;12.20;99.90;;;;;;5072605;28;20020;-71
2022/05/07 01:13:55;;;;;;;1.42;0.40;;;12.20;99.90;;;;;;5073179;28;20445;-71
2022/05/07 01:16:24;;;;;;;0.85;0.40;;;12.20;99.90;;;;;;5073047;28;20023;-71
2022/05/07 01:18:52;;;;;;;1.05;0.30;;;12.30;99.90;;;;;;5072986;28;20017;-72
2022/05/07 01:21:20;;;;;;;1.48;0.40;;;12.30;99.90;;;;;;5073044;28;20037;-71
2022/05/07 01:23:48;;;;;;;0.40;0.40;;;12.40;99.90;;;;;;5071710;28;20492;-72
2022/05/07 01:26:21;;;;;;;1.77;0.60;;;12.40;99.90;;;;;;5073209;28;20089;-70
2022/05/07 01:28:49;;;;;;;1.23;0.40;;;12.50;99.90;;;;;;5073390;28;20020;-71
2022/05/07 01:31:18;;;;;;;1.23;0.70;;;12.50;99.90;;;;;;5068281;28;20110;-72
2022/05/07 01:33:46;;;;;;;0.65;0.40;;;12.50;99.90;;;;;;5053639;28;20020;-72
2022/05/07 01:36:17;;;;;;;8.25;0.50;;;12.50;99.90;;;;;;5066497;28;20037;-72
2022/05/07 01:38:46;;;;;;;0.38;0.38;;;12.50;99.90;;;;;;5070169;28;20104;-73
2022/05/07 01:41:13;;;;;;;0.50;0.47;;;12.50;99.90;;;;;;5071320;28;20126;-73
2022/05/07 01:43:41;;;;;;;8.40;0.60;;;12.50;99.90;;;;;;5071089;28;20028;-73
2022/05/07 01:48:57;;;;;;;1.63;0.60;;;12.50;99.90;;;;;;5043426;28;20514;-74
2022/05/07 01:51:25;;;;;;;0.82;0.50;;;12.60;99.90;;;;;;5075849;28;20020;-74
2022/05/07 01:53:53;;;;;;;2.65;0.70;;;12.70;99.90;;;;;;5058963;28;20060;-73
2022/05/07 01:56:20;;;;;;;0.55;0.50;;;12.70;99.90;;;;;;5058453;28;20023;-74
2022/05/07 01:58:49;;;;;;;0.88;0.40;;;12.70;99.90;;;;;;5063236;28;20107;-74
2022/05/07 02:01:17;;;;;;;0.50;0.40;;;12.80;99.90;;;;;;5076895;28;20032;-74
2022/05/07 02:03:45;;;;;;;1.10;0.55;;;12.80;99.90;;;;;;5076781;28;20025;-74
2022/05/07 02:06:12;;;;;;;1.10;0.50;;;12.90;99.90;;;;;;5076732;28;20029;-74
2022/05/07 02:08:41;;;;;;;1.58;0.60;;;13.00;99.90;;;;;;5076761;28;20066;-73
2022/05/07 02:11:09;;;;;;;1.25;0.50;;;13.10;99.90;;;;;;5076153;28;20099;-74
2022/05/07 02:13:39;;;;;;;0.85;0.45;;;13.10;99.90;;;;;;5076651;28;20036;-74
2022/05/07 02:16:07;;;;;;;1.73;0.40;;;13.20;99.90;;;;;;5075798;28;20025;-73
2022/05/07 02:18:35;;;;;;;3.80;0.85;;;13.20;99.90;;;;;;5075720;28;20035;-74
2022/05/07 02:21:02;;;;;;;1.50;0.60;;;13.30;99.90;;;;;;5072736;28;20025;-74
2022/05/07 02:23:30;;;;;;;0.65;0.50;;;13.40;99.90;;;;;;5075056;28;20062;-75
2022/05/07 02:25:58;;;;;;;1.38;0.50;;;13.50;99.90;;;;;;5075845;28;20021;-77
2022/05/07 02:28:25;;;;;;;2.03;0.40;;;13.60;99.90;;;;;;5075860;28;20020;-74
2022/05/07 02:30:53;;;;;;;2.53;1.10;;;13.60;99.90;;;;;;5075519;28;20029;-75
2022/05/07 02:33:21;;;;;;;1.95;0.60;;;13.70;99.90;;;;;;5073238;28;20020;-75
2022/05/07 02:35:49;;;;;;;0.82;0.50;;;13.70;99.90;;;;;;5075206;28;20068;-74
2022/05/07 02:38:17;;;;;;;0.82;0.40;;;13.80;99.90;;;;;;5076333;28;20099;-76
2022/05/07 02:43:30;;;;;;;4.28;0.80;;;13.90;99.90;;;;;;5073726;28;20027;-74
2022/05/07 02:45:58;;;;;;;0.98;0.68;;;14.10;99.90;;;;;;5075327;28;20032;-75
2022/05/07 02:48:26;;;;;;;0.57;0.40;;;14.10;99.90;;;;;;5072690;28;20117;-74
2022/05/07 02:50:54;;;;;;;1.08;0.45;;;14.20;99.90;;;;;;5075062;28;20009;-75
2022/05/07 02:53:22;;;;;;;1.45;0.45;;;14.20;99.90;;;;;;5075433;28;20028;-75
2022/05/07 02:55:49;;;;;;;1.00;0.40;;;14.20;99.90;;;;;;5075640;28;20016;-75
2022/05/07 02:58:17;;;;;;;0.85;0.30;;;14.20;99.90;;;;;;5074946;28;20477;-74
2022/05/07 03:00:46;;;;;;;0.52;0.45;;;14.30;99.90;;;;;;5075551;28;20071;-74
2022/05/07 03:03:14;;;;;;;1.65;0.50;;;14.30;99.90;;;;;;5075640;28;20086;-75
2022/05/07 03:05:42;;;;;;;1.15;0.50;;;14.40;99.90;;;;;;5075124;28;20082;-75
2022/05/07 03:08:09;;;;;;;6.53;0.50;;;14.50;99.90;;;;;;5075596;28;20032;-75
2022/05/07 03:10:37;;;;;;;5.78;0.65;;;14.50;99.90;;;;;;5075447;28;20029;-75
2022/05/07 03:13:05;;;;;;;0.68;0.47;;;14.60;99.90;;;;;;5075555;28;20389;-73
2022/05/07 03:15:33;;;;;;;1.88;0.50;;;14.60;99.90;;;;;;5075295;28;20445;-75
2022/05/07 03:18:00;;;;;;;3.60;0.40;;;14.60;99.90;;;;;;5075621;28;20465;-74
2022/05/07 03:20:28;;;;;;;0.70;0.47;;;14.60;99.90;;;;;;5075125;28;20086;-75
2022/05/07 03:22:56;;;;;;;1.27;0.40;;;14.70;99.90;;;;;;5075435;28;20031;-75
2022/05/07 03:25:24;;;;;;;1.38;0.57;;;14.70;99.90;;;;;;5075321;28;20029;-76
2022/05/07 03:27:51;;;;;;;1.40;0.43;;;14.80;99.90;;;;;;5075213;28;20740;-76
2022/05/07 03:30:19;;;;;;;1.75;0.40;;;14.90;99.90;;;;;;5074189;28;20548;-73
2022/05/07 03:32:47;;;;;;;0.90;0.35;;;14.90;99.90;;;;;;5075297;28;20021;-75
2022/05/07 03:35:14;;;;;;;1.23;0.45;;;15.00;99.90;;;;;;5074956;28;20493;-75
2022/05/07 03:37:42;;;;;;;0.50;0.40;;;15.10;99.90;;;;;;5075076;28;20039;-74
2022/05/07 03:40:10;;;;;;;0.35;0.30;;;15.10;99.90;;;;;;5075122;28;20032;-74
2022/05/07 03:42:38;;;;;;;0.65;0.35;;;15.20;99.90;;;;;;5074966;28;20021;-75
2022/05/07 03:45:07;;;;;;;0.60;0.52;;;15.20;99.90;;;;;;5074730;28;20146;-76
2022/05/07 03:47:34;;;;;;;0.93;0.50;;;15.20;99.90;;;;;;5074595;28;20533;-74
2022/05/07 03:50:02;;;;;;;0.70;0.30;;;15.30;99.90;;;;;;5074773;28;20370;-75
2022/05/07 03:55:16;;;;;;;5.03;0.80;;;15.30;99.90;;;;;;5074115;28;20116;-74
2022/05/07 03:57:44;;;;;;;0.22;0.22;;;15.20;99.90;;;;;;5074832;28;20029;-74
2022/05/07 04:00:12;;;;;;;2.45;0.90;;;15.20;99.90;;;;;;5074565;28;20039;-74
2022/05/07 04:02:40;;;;;;;1.65;0.50;;;15.20;99.90;;;;;;5073273;28;20435;-74
2022/05/07 04:05:08;;;;;;;0.20;0.20;;;15.20;99.90;;;;;;5074455;28;20038;-74
2022/05/07 04:07:37;;;;;;;0.57;0.30;;;15.20;99.90;;;;;;5073980;28;20016;-74
2022/05/07 04:10:06;;;;;;;0.47;0.30;;;15.30;99.90;;;;;;5073382;28;20032;-73
2022/05/07 04:12:34;;;;;;;1.70;0.30;;;15.30;99.90;;;;;;5074282;28;20082;-74
2022/05/07 04:15:02;;;;;;;0.35;0.30;;;15.20;99.90;;;;;;5073248;28;20392;-74
2022/05/07 04:17:30;;;;;;;2.22;0.30;;;15.20;99.90;;;;;;5072090;28;20025;-73
2022/05/07 04:19:57;;;;;;;0.20;0.20;;;15.20;99.90;;;;;;5071934;28;20446;-74
2022/05/07 04:22:25;;;;;;;0.52;0.30;;;15.20;99.90;;;;;;5070748;28;20527;-74
2022/05/07 04:24:53;;;;;;;0.90;0.20;;;15.20;99.90;;;;;;5072111;28;20099;-74
2022/05/07 04:27:20;;;;;;;0.73;0.40;;;15.20;99.90;;;;;;5072316;28;20036;-74
2022/05/07 04:29:48;;;;;;;0.60;0.40;;;15.30;99.90;;;;;;5072806;28;20107;-75
2022/05/07 04:32:16;;;;;;;0.60;0.28;;;15.30;99.90;;;;;;5073946;28;20043;-74
2022/05/07 04:34:43;;;;;;;0.52;0.20;;;15.30;99.90;;;;;;5072253;28;20064;-74
2022/05/07 04:37:11;;;;;;;1.75;0.30;;;15.30;99.90;;;;;;5057669;28;20032;-74
2022/05/07 04:39:39;;;;;;;0.75;0.20;;;15.20;99.90;;;;;;5054005;28;20086;-74
2022/05/07 04:42:07;;;;;;;1.38;0.55;;;15.30;99.90;;;;;;5054054;28;20090;-74
2022/05/07 04:44:35;;;;;;;1.02;0.30;;;15.30;99.90;;;;;;5053983;28;20078;-74
2022/05/07 04:47:04;;;;;;;0.45;0.20;;;15.40;99.90;;;;;;5053829;28;20029;-76
2022/05/07 04:49:33;;;;;;;1.85;0.40;;;15.40;99.90;;;;;;5053983;28;20390;-73
2022/05/07 04:52:00;;;;;;;0.43;0.30;;;15.30;99.90;;;;;;5053778;28;20504;-74
2022/05/07 04:54:28;;;;;;;1.48;0.73;;;15.40;99.90;;;;;;5053729;28;20024;-75
2022/05/07 04:56:56;;;;;;;0.22;0.20;;;15.30;99.90;;;;;;5053864;28;20028;-75
2022/05/07 04:59:24;;;;;;;0.40;0.20;;;15.40;99.90;;;;;;5053747;28;20024;-75
2022/05/07 05:01:52;;;;;;;0.22;0.20;;;15.30;99.90;;;;;;5053724;28;20032;-75
2022/05/07 05:04:19;;;;;;;0.77;0.52;;;15.30;99.90;;;;;;5053492;28;20025;-75
2022/05/07 05:06:47;;;;;;;0.20;0.17;;;15.20;99.90;;;;;;5053362;28;20083;-75
2022/05/07 05:09:15;;;;;;;1.85;0.45;;;15.20;99.90;;;;;;5053560;28;20543;-76
2022/05/07 05:11:43;;;;;;;0.20;0.20;;;15.20;99.90;;;;;;5053651;28;20032;-75
2022/05/07 05:16:56;;;;;;;3.33;0.30;;;15.20;99.90;;;;;;5053291;28;20461;-72
2022/05/07 05:19:24;;;;;;;1.73;0.30;;;15.20;99.90;;;;;;5053310;28;20033;-73
2022/05/07 05:21:51;;;;;;;0.35;0.28;;;15.30;99.90;;;;;;5053831;28;20067;-73
2022/05/07 05:24:19;;;;;;;0.60;0.20;;;15.30;99.90;;;;;;5053423;28;20111;-73
2022/05/07 05:26:47;;;;;;;0.22;0.20;;;15.20;99.90;;;;;;5053428;28;20433;-74
2022/05/07 05:29:15;;;;;;;0.98;0.40;;;15.20;99.90;;;;;;5053427;28;20025;-74
2022/05/07 05:31:43;;;;;;;1.30;0.30;;;15.20;99.90;;;;;;5053294;28;20191;-74
2022/05/07 05:34:10;;;;;;;0.43;0.28;;;15.20;99.90;;;;;;5052952;28;20482;-74
2022/05/07 05:36:38;;;;;;;1.73;0.28;;;15.10;99.90;;;;;;5053087;28;20025;-74
2022/05/07 05:39:07;;;;;;;1.88;0.30;;;15.10;99.90;;;;;;5053242;28;20389;-74
2022/05/07 05:41:35;;;;;;;0.22;0.22;;;15.10;99.90;;;;;;5053145;28;20094;-73
2022/05/07 05:44:04;;;;;;;1.48;0.28;;;15.00;99.90;;;;;;5053363;28;20021;-73
2022/05/07 05:46:31;;;;;;;0.90;0.38;;;15.00;99.90;;;;;;5053100;28;20021;-73
2022/05/07 05:48:59;;;;;;;1.83;0.40;;;15.00;99.90;;;;;;5053064;28;20116;-73
2022/05/07 05:51:27;;;;;;;1.63;0.50;;;15.00;99.90;;;;;;5053127;28;20027;-73
2022/05/07 05:53:55;;;;;;;1.02;0.38;;;15.00;99.90;;;;;;5053171;28;20025;-73
2022/05/07 05:56:22;;;;;;;0.88;0.50;;;15.00;99.90;;;;;;5051713;28;20036;-73
2022/05/07 05:58:50;;;;;;;0.80;0.50;;;15.00;99.90;;;;;;5053109;28;20024;-73
2022/05/07 06:01:18;;;;;;;2.08;0.40;;;15.00;99.90;;;;;;5052984;28;20485;-73
2022/05/07 06:03:45;;;;;;;0.52;0.35;;;14.90;99.90;;;;;;5052941;28;20450;-74
2022/05/07 06:06:13;;;;;;;0.20;0.20;;;14.90;99.90;;;;;;5053049;28;20036;-74
2022/05/07 06:08:42;;;;;;;0.93;0.20;;;14.90;99.90;;;;;;5052843;28;20013;-74
2022/05/07 06:11:10;;;;;;;0.20;0.20;;;14.90;99.90;;;;;;5052987;28;20025;-74
2022/05/07 06:13:38;;;;;;;0.22;0.20;;;14.90;99.90;;;;;;5052918;28;20477;-74
2022/05/07 06:16:06;;;;;;;0.40;0.25;;;14.80;99.90;;;;;;5052756;28;20021;-74
2022/05/07 06:18:33;;;;;;;0.55;0.30;;;14.80;99.90;;;;;;5053022;28;20466;-74
2022/05/07 06:21:03;;;;;;;3.92;0.38;;;14.80;99.90;;;;;;5052803;28;20033;-75
2022/05/07 06:23:31;;;;;;;0.30;0.20;;;14.70;99.90;;;;;;5052951;28;20049;-74
2022/05/07 06:28:44;;;;;;;0.85;0.30;;;14.60;99.90;;;;;;5053294;28;20480;-74
2022/05/07 06:31:12;;;;;;;1.42;0.50;;;14.60;99.90;;;;;;5052717;28;20029;-74
2022/05/07 06:33:39;;;;;;;1.15;0.50;;;14.50;99.90;;;;;;5054955;28;20059;-74
2022/05/07 06:36:08;;;;;;;0.80;0.30;;;14.40;99.90;;;;;;5055896;28;20060;-74
2022/05/07 06:38:36;;;;;;;1.02;0.40;;;14.40;99.90;;;;;;5056336;28;20033;-74
2022/05/07 06:41:05;;;;;;;1.05;0.70;;;14.30;99.90;;;;;;5056415;28;20040;-74
2022/05/07 06:43:34;;;;;;;0.75;0.30;;;14.40;99.90;;;;;;5056361;28;20021;-74
2022/05/07 06:46:02;;;;;;;1.08;0.38;;;14.40;99.90;;;;;;5056049;28;20477;-74
2022/05/07 06:48:30;;;;;;;0.30;0.30;;;14.30;99.90;;;;;;5056401;28;20021;-74
2022/05/07 06:50:58;;;;;;;0.45;0.32;;;14.30;99.90;;;;;;5056334;28;20099;-74
2022/05/07 06:53:26;;;;;;;0.47;0.28;;;14.20;99.90;;;;;;5056270;28;20442;-75
2022/05/07 06:56:00;;;;;;;0.93;0.60;;;14.20;99.90;;;;;;5055886;28;20059;-73
2022/05/07 06:58:34;;;;;;;1.17;0.40;;;14.10;99.90;;;;;;5056272;28;20436;-72
2022/05/07 07:01:03;;;;;;;0.73;0.40;;;14.00;99.90;;;;;;5055056;28;20056;-73
2022/05/07 07:03:31;;;;;;;0.88;0.80;;;14.00;99.90;;;;;;5055938;28;20033;-72
2022/05/07 07:06:00;;;;;;;1.10;0.57;;;13.90;99.90;;;;;;5055808;28;20059;-73
2022/05/07 07:08:29;;;;;;;0.30;0.30;;;13.80;99.90;;;;;;5055882;28;20021;-74
2022/05/07 07:10:57;;;;;;;1.23;0.50;;;13.70;99.90;;;;;;5055972;28;20374;-73
2022/05/07 07:13:26;;;;;;;1.05;0.50;;;13.70;99.90;;;;;;5055629;28;20402;-73
2022/05/07 07:15:54;;;;;;;2.50;0.57;;;13.70;99.90;;;;;;5055500;28;20028;-74
2022/05/07 07:18:22;;;;;;;0.75;0.43;;;13.60;99.90;;;;;;5055819;28;20119;-74
2022/05/07 07:20:50;;;;;;;0.50;0.38;;;13.60;99.90;;;;;;5056371;28;20389;-73
2022/05/07 07:23:18;;;;;;;0.80;0.50;;;13.50;99.90;;;;;;5055582;28;20017;-74
2022/05/07 07:25:46;;;;;;;0.85;0.40;;;13.50;99.90;;;;;;5055413;28;20083;-74
2022/05/07 07:28:17;;;;;;;0.75;0.60;;;13.50;99.90;;;;;;5055502;28;20095;-75
2022/05/07 07:30:45;;;;;;;1.63;0.88;;;13.40;99.90;;;;;;5055503;28;20033;-75
2022/05/07 07:33:16;;;;;;;1.00;0.57;;;13.30;99.90;;;;;;5055505;28;20421;-74
2022/05/07 07:35:44;;;;;;;1.15;0.40;;;13.30;99.90;;;;;;5055179;28;20391;-75
2022/05/07 07:38:13;;;;;;;0.88;0.60;;;13.20;99.90;;;;;;5055479;28;20108;-76
2022/05/07 07:40:43;;;;;;;0.60;0.50;;;13.20;99.90;;;;;;5055095;28;20359;-75
2022/05/07 07:43:11;;;;;;;2.13;0.88;;;13.20;99.90;;;;;;5055216;28;20462;-75
2022/05/07 07:48:25;;;;;;;2.30;0.65;;;13.10;99.90;;;;;;5055517;28;20032;-75
2022/05/07 07:50:53;;;;;;;3.45;0.75;;;13.10;99.90;;;;;;5055141;28;20029;-75
2022/05/07 07:53:24;;;;;;;1.30;0.73;;;13.00;99.90;;;;;;5055116;28;20029;-75
2022/05/07 07:55:53;;;;;;;2.28;0.75;;;12.90;99.90;;;;;;5054676;28;20025;-75
2022/05/07 07:58:20;;;;;;;4.47;0.93;;;12.90;99.90;;;;;;5054945;28;20025;-75
2022/05/07 08:00:48;;;;;;;2.13;0.68;;;12.90;99.90;;;;;;5054881;28;20481;-74
2022/05/07 08:03:18;;;;;;;3.35;0.35;;;12.80;99.90;;;;;;5055025;28;20021;-73
2022/05/07 08:05:48;;;;;;;0.50;0.50;;;12.80;99.90;;;;;;5054921;28;20492;-74
2022/05/07 08:13:49;;;;;;;1.00;0.52;;;12.70;99.90;;;;;;5054804;28;20532;-75
2022/05/07 08:16:20;;;;;;;3.30;0.52;;;12.60;99.90;;;;;;5054441;28;20061;-74
2022/05/07 08:18:50;;;;;;;0.65;0.50;;;12.60;99.90;;;;;;5054634;28;20059;-74
2022/05/07 08:21:18;;;;;;;1.58;0.47;;;12.60;99.90;;;;;;5054450;28;20082;-74
2022/05/07 08:23:46;;;;;;;0.77;0.40;;;12.60;99.90;;;;;;5054503;28;20021;-74
2022/05/07 08:26:14;;;;;;;4.10;0.45;;;12.50;99.90;;;;;;5054320;28;20029;-74
2022/05/07 08:28:42;;;;;;;1.45;0.60;;;12.40;99.90;;;;;;5054624;28;20024;-74
2022/05/07 08:31:11;;;;;;;0.88;0.60;;;12.40;99.90;;;;;;5054106;28;20025;-72
2022/05/07 08:33:43;;;;;;;0.82;0.30;;;12.30;99.90;;;;;;5054261;28;20025;-76
2022/05/07 08:36:11;;;;;;;1.13;0.60;;;12.30;99.90;;;;;;5053787;28;20053;-74
2022/05/07 08:38:43;;;;;;;0.75;0.50;;;12.30;99.90;;;;;;5054413;28;20066;-75
2022/05/07 08:41:12;;;;;;;1.55;0.50;;;12.20;99.90;;;;;;5054030;28;20039;-75
2022/05/07 08:43:42;;;;;;;0.38;0.38;;;12.20;99.90;;;;;;5054190;28;20036;-72
2022/05/07 08:46:16;;;;;;;0.50;0.50;;;12.20;99.90;;;;;;5053991;28;20048;-74
2022/05/07 08:48:47;;;;;;;3.72;0.40;;;12.20;99.90;;;;;;5054097;28;20103;-73
2022/05/07 08:51:21;;;;;;;0.40;0.40;;;12.20;99.90;;;;;;5053852;28;20017;-74
2022/05/07 08:53:53;;;;;;;4.15;0.77;;;12.10;99.90;;;;;;5053899;28;20032;-74
2022/05/07 08:56:22;;;;;;;0.60;0.50;;;12.10;99.90;;;;;;5053321;28;20013;-74
2022/05/07 08:58:54;;;;;;;1.85;0.60;;;12.10;99.90;;;;;;5053707;28;20474;-75
2022/05/07 09:01:23;;;;;;;12.32;0.70;;;12.10;99.90;;;;;;5053805;28;20037;-74
2022/05/07 09:03:51;;;;;;;0.95;0.40;;;12.10;99.90;;;;;;5053666;28;20020;-74
2022/05/07 09:06:24;;;;;;;0.20;0.20;;;12.00;99.90;;;;;;5053639;28;20437;-75
2022/05/07 09:08:54;;;;;;;0.52;0.40;;;12.00;99.90;;;;;;5053580;28;20021;-74
2022/05/07 09:11:22;;;;;;;1.20;0.60;;;12.00;99.90;;;;;;5053489;28;20025;-75
2022/05/07 09:14:01;;;;;;;1.52;0.73;;;12.00;99.90;;;;;;5053693;28;20466;-75
2022/05/07 09:16:51;;;;;;;0.60;0.43;;;11.90;99.90;;;;;;5053366;28;20025;-75
2022/05/07 09:19:23;;;;;;;0.95;0.50;;;11.90;99.90;;;;;;5053498;28;20086;-75
2022/05/07 09:21:54;;;;;;;0.80;0.50;;;11.90;99.90;;;;;;5053561;28;20088;-75
2022/05/07 09:24:22;;;;;;;2.33;0.50;;;11.80;99.90;;;;;;5053550;28;20476;-72
2022/05/07 09:26:49;;;;;;;0.30;0.30;;;11.90;99.90;;;;;;5053191;28;20041;-75
2022/05/07 09:29:18;;;;;;;0.57;0.40;;;11.90;99.90;;;;;;5053354;28;20072;-75
2022/05/07 09:31:48;;;;;;;1.60;0.90;;;11.80;99.90;;;;;;5053382;28;20029;-75
2022/05/07 09:37:19;;;;;;;1.10;0.70;;;11.90;99.90;;;;;;5053612;28;20095;-75
2022/05/07 09:39:48;;;;;;;4.43;0.68;;;11.80;99.90;;;;;;5053452;28;20068;-73
2022/05/07 09:42:21;;;;;;;0.60;0.50;;;11.90;99.90;;;;;;5053278;28;20028;-74
2022/05/07 09:44:49;;;;;;;1.30;0.85;;;11.80;99.90;;;;;;5053227;28;20113;-74
2022/05/07 09:47:17;;;;;;;0.60;0.50;;;11.80;99.90;;;;;;5053109;28;20053;-72
2022/05/07 09:52:32;;;;;;;2.15;0.75;;;11.70;99.90;;;;;;5053560;28;20084;-72
2022/05/07 09:57:46;;;;;;;0.98;0.70;;;11.70;99.90;;;;;;5053135;28;20429;-72
2022/05/07 10:00:15;;;;;;;1.05;0.63;;;11.60;99.90;;;;;;5053149;28;20094;-73
2022/05/07 10:02:59;;;;;;;1.23;0.60;;;11.60;99.90;;;;;;5053060;28;20026;-73
2022/05/07 10:05:42;;;;;;;1.42;0.60;;;11.60;99.90;;;;;;5053128;28;20033;-71
2022/05/07 10:08:44;;;;;;;1.30;0.70;;;11.60;99.90;;;;;;5054965;28;20382;-72
2022/05/07 10:11:15;;;;;;;1.48;0.50;;;11.50;99.90;;;;;;5048225;28;20033;-71
2022/05/07 10:13:58;;;;;;;1.33;0.50;;;11.60;99.90;;;;;;5056865;28;20052;-71
2022/05/07 10:16:30;;;;;;;1.15;0.65;;;11.50;99.90;;;;;;5056706;28;20022;-74
2022/05/07 10:19:10;;;;;;;1.42;0.60;;;11.60;99.90;;;;;;5057019;28;20032;-74
2022/05/07 10:21:37;;;;;;;3.67;0.70;;;11.50;99.90;;;;;;5056838;28;20048;-74
2022/05/07 10:24:05;;;;;;;1.27;0.40;;;11.50;99.90;;;;;;5056828;28;20033;-71
2022/05/07 10:26:46;;;;;;;1.85;0.88;;;11.50;99.90;;;;;;5056773;28;20466;-72
2022/05/07 10:29:30;;;;;;;0.75;0.60;;;11.50;99.90;;;;;;5056637;28;20021;-72
2022/05/07 10:32:04;;;;;;;0.70;0.60;;;11.50;99.90;;;;;;5056986;28;20347;-72
2022/05/07 10:34:32;;;;;;;0.80;0.65;;;11.50;99.90;;;;;;5056277;28;20045;-71
2022/05/07 10:37:06;;;;;;;4.93;0.90;;;11.50;99.90;;;;;;5056307;28;20426;-72
2022/05/07 10:39:36;;;;;;;4.68;0.95;;;11.50;99.90;;;;;;5056594;28;20035;-74
2022/05/07 10:42:18;;;;;;;1.30;0.80;;;11.50;99.90;;;;;;5056406;28;20359;-73
2022/05/07 10:44:46;;;;;;;1.92;0.90;;;11.50;99.90;;;;;;5056395;28;20520;-73
2022/05/07 10:47:20;;;;;;;1.85;0.77;;;11.50;99.90;;;;;;5056328;28;20036;-74
2022/05/07 10:49:54;;;;;;;1.17;0.90;;;11.50;99.90;;;;;;5056175;28;20028;-72
2022/05/07 10:52:33;;;;;;;1.85;0.80;;;11.50;99.90;;;;;;5056387;28;20390;-72
2022/05/07 10:55:08;;;;;;;3.00;0.70;;;11.50;99.90;;;;;;5055982;28;20024;-73
2022/05/07 10:57:45;;;;;;;;;;;11.50;99.90;;;;;;5056483;28;20025;-73
2022/05/07 11:00:18;;;;;;;1.77;0.73;;;11.50;99.90;;;;;;5056092;28;19908;-74
2022/05/07 11:02:48;;;;;;;1.38;0.88;;;11.50;99.90;;;;;;5056175;28;20025;-74
2022/05/07 11:05:17;;;;;;;1.73;0.60;;;11.40;99.90;;;;;;5055737;28;20025;-71
2022/05/07 11:07:45;;;;;;;5.05;0.88;;;11.50;99.90;;;;;;5056148;28;20037;-74
2022/05/07 11:10:12;;;;;;;0.98;0.60;;;11.40;99.90;;;;;;5055929;28;20029;-72
2022/05/07 11:12:40;;;;;;;1.00;0.55;;;11.40;99.90;;;;;;5055837;28;20464;-72
2022/05/07 11:15:12;;;;;;;1.27;0.75;;;11.30;99.90;;;;;;5055450;28;20021;-74
2022/05/07 11:17:41;;;;;;;1.02;0.80;;;11.30;99.90;;;;;;5055434;28;20068;-71
2022/05/07 11:20:08;;;;;;;1.35;0.88;;;11.30;99.90;;;;;;5054842;28;20060;-70
2022/05/07 11:22:39;;;;;;;1.95;0.65;;;11.20;99.90;;;;;;5057486;28;20017;-72
2022/05/07 11:25:08;;;;;;;1.02;0.40;;;11.20;99.90;;;;;;5074513;28;20037;-72
2022/05/07 11:27:35;;;;;;;1.20;0.47;;;11.20;99.90;;;;;;5059949;28;20060;-73
2022/05/07 11:30:05;;;;;;;0.65;0.40;;;11.20;99.90;;;;;;5074468;28;20029;-73
2022/05/07 11:32:43;;;;;;;2.08;0.73;;;11.20;99.90;;;;;;5074373;28;20020;-73
2022/05/07 11:35:11;;;;;;;1.48;0.73;;;11.20;99.90;;;;;;5074167;28;20039;-72
2022/05/07 11:37:40;;;;;;;0.85;0.57;;;11.10;99.90;;;;;;5066025;28;20478;-74
2022/05/07 11:40:12;;;;;;;2.53;0.82;;;11.10;99.90;;;;;;5054291;28;20047;-75
2022/05/07 11:42:43;;;;;;;0.88;0.65;;;11.00;99.90;;;;;;5054302;28;20403;-72
2022/05/07 11:45:30;;;;;;;0.63;0.50;;;11.00;99.90;;;;;;5054339;28;20060;-72
2022/05/07 11:48:23;;;;;;;2.03;1.30;;;10.90;99.90;;;;;;5054310;28;20504;-72
2022/05/07 11:50:55;;;;;;;1.15;0.77;;;10.90;99.90;;;;;;5054104;28;20482;-74
2022/05/07 11:53:29;;;;;;;2.83;1.10;;;10.80;99.90;;;;;;5054062;28;20052;-74
2022/05/07 11:56:07;;;;;;;1.10;0.80;;;10.70;99.90;;;;;;5054082;28;20029;-72
2022/05/07 11:58:48;;;;;;;2.20;0.82;;;10.70;99.90;;;;;;5053807;28;20098;-73
2022/05/07 12:01:31;;;;;;;1.67;0.95;;;10.60;99.90;;;;;;5054044;28;20373;-72
2022/05/07 12:04:11;;;;;;;1.77;1.00;;;10.50;99.90;;;;;;5054215;28;20025;-71
2022/05/07 12:06:39;;;;;;;2.20;1.10;;;10.50;99.90;;;;;;5053863;28;20081;-71
2022/05/07 12:09:16;;;;;;;0.82;0.60;;;10.50;99.90;;;;;;5054076;28;20501;-73
2022/05/07 12:11:44;;;;;;;2.28;1.05;;;10.40;99.90;;;;;;5053620;28;20033;-71
2022/05/07 12:14:11;;;;;;;1.55;0.90;;;10.40;99.90;;;;;;5069417;28;20378;-72
2022/05/07 12:19:35;;;;;;;2.25;0.90;;;10.30;99.90;;;;;;5054052;28;20036;-74
2022/05/07 12:30:19;;;;;;;1.92;0.90;;;10.20;99.90;;;;;;5071558;28;20295;-73
2022/05/07 12:32:48;;;;;;;1.55;0.77;;;10.20;99.90;;;;;;5069807;28;20111;-74
2022/05/07 12:35:16;;;;;;;2.13;1.10;;;10.20;99.90;;;;;;5072924;28;20045;-74
2022/05/07 12:37:43;;;;;;;2.17;1.02;;;10.10;99.90;;;;;;5073102;28;20028;-70
2022/05/07 12:40:12;;;;;;;2.40;1.15;;;10.10;99.90;;;;;;5073319;28;20028;-74
2022/05/07 12:42:40;;;;;;;1.30;0.75;;;10.10;99.90;;;;;;5072664;28;20060;-71
2022/05/07 12:45:08;;;;;;;1.45;0.73;;;10.10;99.90;;;;;;5073485;28;20017;-74
2022/05/07 12:47:35;;;;;;;2.40;1.20;;;10.10;99.90;;;;;;5071191;28;20039;-73
2022/05/07 12:50:03;;;;;;;2.97;1.00;;;10.10;99.90;;;;;;5074114;28;20031;-75
2022/05/07 12:52:31;;;;;;;1.92;0.95;;;10.10;99.90;;;;;;5073966;28;20063;-72
2022/05/07 12:54:58;;;;;;;1.05;0.80;;;10.10;99.90;;;;;;5073581;28;20028;-75
2022/05/07 12:57:25;;;;;;;1.23;0.70;;;10.10;99.90;;;;;;5073559;28;20070;-72
2022/05/07 12:59:53;;;;;;;3.08;0.80;;;10.00;99.90;;;;;;5073686;28;20127;-74
2022/05/07 13:02:20;;;;;;;3.83;1.17;;;10.00;99.90;;;;;;5073690;28;20024;-72
2022/05/07 13:04:47;;;;;;;1.25;0.70;;;10.00;99.90;;;;;;5073643;28;20024;-72
2022/05/07 13:07:15;;;;;;;2.33;0.70;;;10.00;99.90;;;;;;5073789;28;20021;-71
2022/05/07 13:09:42;;;;;;;0.60;0.60;;;10.00;99.90;;;;;;5073126;28;20071;-71
2022/05/07 13:12:13;;;;;;;1.42;0.90;;;10.00;99.90;;;;;;5073537;28;20112;-74
2022/05/07 13:14:41;;;;;;;1.52;0.90;;;10.00;99.90;;;;;;5073521;28;20032;-72
2022/05/07 13:17:08;;;;;;;2.30;0.90;;;9.90;99.90;;;;;;5073397;28;20032;-72
2022/05/07 13:19:35;;;;;;;1.30;0.65;;;9.90;99.90;;;;;;5073602;28;20153;-74
2022/05/07 13:22:04;;;;;;;1.45;0.88;;;9.90;99.90;;;;;;5073556;28;20051;-74
2022/05/07 13:24:31;;;;;;;1.75;0.93;;;9.80;99.90;;;;;;5073271;28;20103;-72
2022/05/07 13:26:59;;;;;;;3.50;1.02;;;9.80;99.90;;;;;;5073443;28;20436;-72
2022/05/07 13:29:28;;;;;;;4.28;0.70;;;9.80;99.90;;;;;;5073441;28;20035;-74
2022/05/07 13:31:58;;;;;;;1.30;0.93;;;9.80;99.90;;;;;;5073364;28;20024;-71
2022/05/07 13:34:26;;;;;;;1.10;0.60;;;9.80;99.90;;;;;;5073218;28;20473;-72
2022/05/07 13:36:54;;;;;;;1.90;0.95;;;9.80;99.90;;;;;;5073127;28;20032;-72
2022/05/07 13:39:21;;;;;;;2.22;0.80;;;9.80;99.90;;;;;;5073157;28;20028;-72
2022/05/07 13:41:49;;;;;;;2.85;1.30;;;9.70;99.90;;;;;;5074896;28;20043;-74
2022/05/07 13:44:16;;;;;;;2.35;0.77;;;9.70;99.90;;;;;;5079980;28;20055;-71
2022/05/07 13:46:44;;;;;;;1.25;0.90;;;9.70;99.90;;;;;;5079933;28;20024;-71